createdAt,value
2023-05-02T00:00:30.026Z,22.58
2023-05-02T00:01:05.998Z,34.58
2023-05-02T00:01:38.303Z,63.38
2023-05-02T00:02:16.039Z,47.92
2023-05-02T00:02:48.592Z,40.40
2023-05-02T00:03:21.271Z,33.70
2023-05-02T00:03:56.310Z,49.17
2023-05-02T00:04:28.876Z,46.88
2023-05-02T00:05:01.341Z,36.47
2023-05-02T00:05:37.219Z,34.97
2023-05-02T00:06:10.072Z,35.10
2023-05-02T00:06:42.902Z,40.28
2023-05-02T00:07:17.949Z,31.13
2023-05-02T00:07:50.313Z,43.38
2023-05-02T00:08:22.510Z,50.22
2023-05-02T00:08:57.919Z,42.58
2023-05-02T00:09:30.392Z,25.05
2023-05-02T00:10:03.321Z,36.60
2023-05-02T00:10:38.479Z,34.60
2023-05-02T00:11:10.840Z,36.90
2023-05-02T00:11:43.177Z,36.70
2023-05-02T00:12:17.950Z,38.30
2023-05-02T00:12:50.134Z,57.40
2023-05-02T00:13:22.322Z,64.53
2023-05-02T00:13:57.119Z,56.60
2023-05-02T00:14:29.373Z,31.48
2023-05-02T00:15:01.749Z,37.28
2023-05-02T00:15:36.572Z,36.13
2023-05-02T00:16:08.777Z,52.38
2023-05-02T00:16:41.075Z,37.33
2023-05-02T00:17:23.034Z,30.40
2023-05-02T00:17:55.380Z,41.90
2023-05-02T00:18:27.714Z,40.28
2023-05-02T00:19:02.708Z,53.67
2023-05-02T00:19:39.032Z,17.15
2023-05-02T00:20:12.508Z,46.78
2023-05-02T00:20:47.628Z,19.80
2023-05-02T00:21:19.937Z,32.83
2023-05-02T00:21:52.267Z,24.13
2023-05-02T00:22:28.508Z,36.35
2023-05-02T00:23:00.775Z,38.95
2023-05-02T00:23:33.109Z,30.08
2023-05-02T00:24:08.856Z,40.80
2023-05-02T00:24:41.071Z,22.75
2023-05-02T00:25:16.432Z,94.78
2023-05-02T00:25:51.536Z,16.92
2023-05-02T00:26:24.057Z,53.15
2023-05-02T00:26:56.471Z,27.73
2023-05-02T00:27:33.458Z,47.75
2023-05-02T00:28:05.975Z,40.15
2023-05-02T00:28:38.343Z,25.67
2023-05-02T00:29:13.112Z,51.13
2023-05-02T00:29:45.356Z,19.05
2023-05-02T00:30:18.586Z,54.90
2023-05-02T00:30:53.619Z,37.72
2023-05-02T00:31:26.013Z,24.35
2023-05-02T00:31:58.491Z,11.88
2023-05-02T00:32:35.936Z,15.70
2023-05-02T00:33:08.228Z,22.27
2023-05-02T00:33:40.463Z,20.00
2023-05-02T00:34:15.280Z,44.45
2023-05-02T00:34:47.494Z,26.60
2023-05-02T00:35:19.786Z,52.83
2023-05-02T00:35:54.688Z,16.88
2023-05-02T00:36:27.693Z,25.88
2023-05-02T00:36:59.919Z,21.50
2023-05-02T00:37:34.788Z,21.83
2023-05-02T00:38:07.903Z,31.30
2023-05-02T00:38:40.319Z,25.23
2023-05-02T00:39:15.149Z,52.47
2023-05-02T00:39:47.383Z,55.47
2023-05-02T00:40:19.787Z,39.47
2023-05-02T00:40:54.767Z,29.00
2023-05-02T00:41:26.983Z,27.10
2023-05-02T00:41:59.621Z,32.35
2023-05-02T00:42:36.647Z,11.85
2023-05-02T00:43:08.942Z,43.50
2023-05-02T00:43:41.472Z,25.40
2023-05-02T00:44:16.723Z,46.97
2023-05-02T00:44:48.983Z,38.42
2023-05-02T00:45:21.268Z,59.78
2023-05-02T00:45:56.268Z,24.45
2023-05-02T00:46:28.659Z,46.65
2023-05-02T00:47:02.113Z,20.55
2023-05-02T00:47:39.735Z,27.83
2023-05-02T00:48:12.647Z,25.85
2023-05-02T00:48:45.481Z,23.90
2023-05-02T00:49:20.266Z,52.00
2023-05-02T00:49:52.447Z,28.70
2023-05-02T00:50:27.655Z,46.28
2023-05-02T00:51:02.727Z,14.50
2023-05-02T00:51:34.917Z,34.67
2023-05-02T00:52:07.921Z,13.23
2023-05-02T00:52:42.783Z,31.88
2023-05-02T00:53:15.655Z,54.03
2023-05-02T00:53:48.734Z,31.10
2023-05-02T00:54:23.697Z,50.70
2023-05-02T00:54:56.733Z,23.33
2023-05-02T00:55:28.987Z,42.35
2023-05-02T00:56:05.189Z,29.20
2023-05-02T00:56:37.592Z,38.08
2023-05-02T00:57:09.835Z,30.73
2023-05-02T00:57:44.801Z,34.80
2023-05-02T00:58:19.692Z,52.22
2023-05-02T00:58:55.000Z,14.13
2023-05-02T00:59:27.435Z,29.83
2023-05-02T00:59:59.872Z,17.55
2023-05-02T01:00:43.163Z,48.78
2023-05-02T01:01:30.123Z,37.55
2023-05-02T01:02:15.576Z,15.82
2023-05-02T01:02:59.348Z,17.35
2023-05-02T01:03:40.067Z,33.85
2023-05-02T01:04:26.401Z,44.42
2023-05-02T01:05:06.258Z,15.98
2023-05-02T01:05:49.789Z,47.30
2023-05-02T01:06:36.977Z,40.60
2023-05-02T01:07:43.126Z,26.65
2023-05-02T01:08:26.205Z,43.92
2023-05-02T01:09:12.605Z,31.35
2023-05-02T01:09:57.921Z,21.58
2023-05-02T01:10:42.095Z,30.70
2023-05-02T01:11:17.241Z,20.85
2023-05-02T01:12:03.397Z,66.90
2023-05-02T01:12:45.302Z,35.47
2023-05-02T01:13:22.683Z,33.92
2023-05-02T01:13:59.149Z,13.48
2023-05-02T01:14:37.128Z,23.13
2023-05-02T01:15:15.586Z,27.58
2023-05-02T01:15:51.896Z,24.70
2023-05-02T01:16:28.264Z,20.20
2023-05-02T01:17:05.107Z,28.50
2023-05-02T01:17:39.364Z,21.30
2023-05-02T01:18:19.758Z,50.45
2023-05-02T01:18:53.293Z,18.67
2023-05-02T01:19:32.172Z,48.60
2023-05-02T01:20:11.507Z,14.88
2023-05-02T01:20:47.087Z,53.75
2023-05-02T01:21:19.390Z,39.72
2023-05-02T01:21:55.519Z,40.88
2023-05-02T01:22:29.405Z,9.50
2023-05-02T01:23:13.500Z,31.48
2023-05-02T01:23:54.794Z,18.92
2023-05-02T01:24:33.040Z,38.67
2023-05-02T01:25:17.380Z,20.52
2023-05-02T01:26:02.543Z,46.42
2023-05-02T01:26:48.743Z,34.03
2023-05-02T01:27:31.355Z,17.17
2023-05-02T01:28:17.708Z,23.38
2023-05-02T01:29:03.690Z,25.23
2023-05-02T01:29:39.780Z,22.27
2023-05-02T01:30:16.973Z,19.27
2023-05-02T01:30:50.898Z,28.90
2023-05-02T01:31:28.387Z,12.13
2023-05-02T01:32:03.323Z,38.30
2023-05-02T01:32:41.705Z,12.77
2023-05-02T01:33:17.751Z,58.90
2023-05-02T01:33:51.803Z,7.53
2023-05-02T01:34:28.548Z,41.13
2023-05-02T01:35:02.803Z,11.23
2023-05-02T01:35:36.132Z,26.42
2023-05-02T01:36:11.879Z,19.42
2023-05-02T01:36:46.899Z,41.17
2023-05-02T01:37:23.211Z,25.25
2023-05-02T01:37:58.318Z,23.33
2023-05-02T01:38:31.859Z,10.18
2023-05-02T01:39:08.553Z,9.48
2023-05-02T01:39:43.039Z,16.63
2023-05-02T01:40:20.698Z,55.97
2023-05-02T01:40:57.428Z,13.30
2023-05-02T01:41:32.579Z,16.80
2023-05-02T01:42:05.899Z,26.40
2023-05-02T01:42:42.803Z,8.43
2023-05-02T01:43:17.157Z,23.92
2023-05-02T01:43:50.105Z,23.10
2023-05-02T01:44:28.482Z,13.48
2023-05-02T01:45:03.692Z,11.45
2023-05-02T01:45:38.234Z,26.95
2023-05-02T01:46:14.607Z,16.98
2023-05-02T01:46:48.429Z,20.92
2023-05-02T01:47:23.229Z,40.00
2023-05-02T01:47:58.452Z,14.10
2023-05-02T01:48:31.689Z,34.67
2023-05-02T01:49:06.993Z,27.77
2023-05-02T01:49:43.953Z,11.50
2023-05-02T01:50:20.563Z,26.15
2023-05-02T01:50:52.950Z,55.42
2023-05-02T01:51:33.946Z,41.63
2023-05-02T01:52:11.763Z,46.42
2023-05-02T01:52:45.351Z,48.03
2023-05-02T01:53:22.621Z,28.33
2023-05-02T01:53:54.923Z,25.33
2023-05-02T01:54:27.849Z,25.40
2023-05-02T01:55:05.233Z,45.67
2023-05-02T01:55:39.356Z,43.45
2023-05-02T01:56:11.755Z,41.05
2023-05-02T01:56:47.529Z,35.28
2023-05-02T01:57:20.141Z,43.67
2023-05-02T01:57:54.760Z,42.78
2023-05-02T01:58:32.319Z,33.88
2023-05-02T01:59:08.315Z,35.00
2023-05-02T01:59:44.693Z,33.58
2023-05-02T02:00:21.729Z,58.30
2023-05-02T02:00:55.050Z,43.78
2023-05-02T02:01:31.345Z,26.70
2023-05-02T02:02:08.729Z,43.03
2023-05-02T02:02:42.722Z,33.58
2023-05-02T02:03:17.375Z,58.30
2023-05-02T02:03:52.719Z,23.23
2023-05-02T02:04:27.202Z,43.40
2023-05-02T02:05:04.206Z,55.05
2023-05-02T02:05:38.228Z,22.67
2023-05-02T02:06:11.789Z,38.00
2023-05-02T02:06:51.448Z,14.02
2023-05-02T02:07:24.350Z,50.92
2023-05-02T02:07:56.758Z,12.98
2023-05-02T02:08:31.695Z,31.83
2023-05-02T02:09:04.377Z,8.73
2023-05-02T02:09:36.796Z,35.15
2023-05-02T02:10:12.267Z,16.65
2023-05-02T02:10:50.210Z,42.17
2023-05-02T02:11:26.742Z,23.25
2023-05-02T02:12:08.467Z,21.55
2023-05-02T02:12:43.427Z,29.45
2023-05-02T02:13:19.889Z,21.38
2023-05-02T02:14:03.639Z,38.20
2023-05-02T02:14:38.572Z,12.68
2023-05-02T02:15:28.619Z,24.70
2023-05-02T02:16:04.443Z,90.97
2023-05-02T02:16:39.933Z,22.17
2023-05-02T02:17:18.954Z,28.83
2023-05-02T02:18:00.519Z,17.85
2023-05-02T02:18:37.237Z,13.43
2023-05-02T02:19:17.094Z,15.32
2023-05-02T02:19:53.119Z,26.27
2023-05-02T02:20:26.804Z,15.27
2023-05-02T02:21:02.647Z,22.48
2023-05-02T02:21:35.867Z,14.27
2023-05-02T02:22:08.764Z,24.33
2023-05-02T02:22:46.005Z,17.25
2023-05-02T02:23:22.241Z,65.40
2023-05-02T02:23:58.027Z,15.38
2023-05-02T02:24:33.850Z,22.08
2023-05-02T02:25:09.089Z,38.05
2023-05-02T02:25:42.605Z,24.63
2023-05-02T02:26:18.436Z,35.72
2023-05-02T02:26:51.586Z,24.67
2023-05-02T02:27:23.845Z,25.88
2023-05-02T02:28:00.142Z,21.60
2023-05-02T02:28:34.842Z,38.42
2023-05-02T02:29:07.137Z,25.70
2023-05-02T02:29:42.460Z,47.65
2023-05-02T02:30:17.570Z,21.90
2023-05-02T02:30:50.356Z,14.57
2023-05-02T02:31:25.971Z,18.08
2023-05-02T02:31:58.517Z,26.10
2023-05-02T02:32:30.901Z,18.98
2023-05-02T02:33:05.802Z,23.00
2023-05-02T02:33:38.545Z,16.58
2023-05-02T02:34:11.353Z,19.88
2023-05-02T02:34:46.191Z,18.17
2023-05-02T02:35:18.656Z,23.13
2023-05-02T02:35:58.868Z,31.60
2023-05-02T02:36:38.365Z,11.88
2023-05-02T02:37:16.999Z,18.52
2023-05-02T02:37:57.005Z,22.42
2023-05-02T02:38:39.757Z,19.77
2023-05-02T02:39:18.604Z,42.40
2023-05-02T02:40:03.586Z,20.02
2023-05-02T02:40:42.351Z,15.32
2023-05-02T02:41:22.070Z,37.17
2023-05-02T02:42:05.679Z,21.13
2023-05-02T02:42:45.068Z,16.52
2023-05-02T02:43:24.249Z,28.05
2023-05-02T02:44:07.219Z,25.48
2023-05-02T02:44:56.638Z,23.45
2023-05-02T02:45:40.439Z,31.95
2023-05-02T02:46:19.935Z,50.50
2023-05-02T02:47:02.919Z,20.55
2023-05-02T02:47:45.333Z,29.25
2023-05-02T02:48:28.153Z,29.23
2023-05-02T02:49:16.880Z,17.13
2023-05-02T02:49:54.254Z,30.88
2023-05-02T02:50:35.052Z,16.85
2023-05-02T02:51:14.202Z,31.58
2023-05-02T02:51:53.304Z,17.05
2023-05-02T02:52:36.256Z,29.50
2023-05-02T02:53:13.248Z,32.28
2023-05-02T02:54:01.268Z,43.97
2023-05-02T02:54:40.374Z,18.85
2023-05-02T02:55:20.535Z,34.78
2023-05-02T02:56:00.745Z,12.48
2023-05-02T02:56:39.507Z,29.90
2023-05-02T02:57:20.559Z,56.63
2023-05-02T02:58:02.701Z,28.23
2023-05-02T02:58:43.892Z,30.52
2023-05-02T02:59:23.445Z,52.25
2023-05-02T03:00:07.438Z,28.02
2023-05-02T03:00:44.981Z,21.38
2023-05-02T03:01:20.672Z,29.48
2023-05-02T03:02:04.622Z,16.13
2023-05-02T03:02:40.443Z,31.92
2023-05-02T03:03:15.887Z,69.03
2023-05-02T03:03:52.553Z,20.67
2023-05-02T03:04:28.067Z,45.05
2023-05-02T03:05:05.576Z,19.95
2023-05-02T03:05:38.193Z,27.85
2023-05-02T03:06:10.615Z,28.83
2023-05-02T03:06:45.574Z,31.13
2023-05-02T03:07:18.129Z,34.40
2023-05-02T03:07:51.346Z,16.42
2023-05-02T03:08:27.868Z,15.35
2023-05-02T03:09:00.113Z,39.15
2023-05-02T03:09:43.324Z,20.40
2023-05-02T03:10:20.994Z,29.20
2023-05-02T03:10:53.787Z,23.58
2023-05-02T03:11:27.653Z,18.83
2023-05-02T03:12:03.321Z,25.40
2023-05-02T03:12:35.792Z,29.88
2023-05-02T03:13:11.825Z,26.38
2023-05-02T03:13:46.488Z,24.13
2023-05-02T03:14:21.562Z,100.22
2023-05-02T03:15:00.173Z,49.60
2023-05-02T03:15:58.997Z,24.60
2023-05-02T03:16:42.967Z,35.58
2023-05-02T03:17:20.173Z,29.08
2023-05-02T03:17:52.476Z,34.00
2023-05-02T03:18:27.421Z,46.28
2023-05-02T03:19:00.190Z,45.47
2023-05-02T03:19:35.522Z,37.90
2023-05-02T03:20:08.851Z,35.47
2023-05-02T03:20:42.222Z,25.35
2023-05-02T03:21:17.285Z,45.15
2023-05-02T03:21:49.462Z,41.20
2023-05-02T03:22:27.996Z,38.55
2023-05-02T03:23:00.301Z,49.30
2023-05-02T03:23:32.478Z,17.48
2023-05-02T03:24:08.221Z,49.05
2023-05-02T03:24:40.467Z,28.67
2023-05-02T03:25:16.328Z,25.35
2023-05-02T03:25:51.897Z,49.05
2023-05-02T03:26:28.602Z,53.90
2023-05-02T03:27:03.531Z,30.33
2023-05-02T03:28:15.872Z,54.15
2023-05-02T03:28:53.517Z,72.25
2023-05-02T03:29:32.458Z,23.98
2023-05-02T03:30:05.685Z,53.65
2023-05-02T03:30:42.103Z,28.92
2023-05-02T03:31:14.911Z,39.53
2023-05-02T03:31:52.521Z,27.77
2023-05-02T03:32:26.133Z,42.22
2023-05-02T03:32:58.579Z,28.52
2023-05-02T03:33:33.506Z,44.67
2023-05-02T03:34:05.869Z,44.97
2023-05-02T03:34:39.103Z,14.88
2023-05-02T03:35:13.924Z,23.02
2023-05-02T03:35:49.408Z,37.35
2023-05-02T03:36:24.301Z,67.30
2023-05-02T03:36:59.100Z,40.08
2023-05-02T03:37:31.628Z,66.03
2023-05-02T03:38:08.007Z,55.92
2023-05-02T03:38:40.572Z,32.72
2023-05-02T03:39:18.825Z,32.33
2023-05-02T03:39:51.383Z,61.45
2023-05-02T03:40:23.640Z,45.25
2023-05-02T03:40:57.691Z,42.25
2023-05-02T03:41:33.290Z,21.08
2023-05-02T03:42:10.934Z,28.25
2023-05-02T03:42:43.181Z,66.75
2023-05-02T03:43:29.937Z,50.50
2023-05-02T03:44:02.666Z,51.40
2023-05-02T03:44:37.745Z,59.85
2023-05-02T03:45:11.146Z,59.47
2023-05-02T03:45:43.440Z,53.78
2023-05-02T03:46:16.072Z,65.47
2023-05-02T03:46:55.375Z,66.93
2023-05-02T03:47:27.789Z,61.78
2023-05-02T03:48:00.270Z,43.88
2023-05-02T03:48:32.977Z,52.42
2023-05-02T03:49:08.482Z,39.85
2023-05-02T03:49:40.999Z,28.65
2023-05-02T03:50:13.787Z,84.80
2023-05-02T03:50:50.060Z,36.40
2023-05-02T03:51:22.340Z,53.00
2023-05-02T03:51:57.451Z,41.13
2023-05-02T03:52:37.608Z,35.47
2023-05-02T03:53:10.268Z,60.83
2023-05-02T03:53:54.997Z,48.38
2023-05-02T03:54:27.303Z,64.82
2023-05-02T03:55:02.458Z,74.72
2023-05-02T03:55:42.602Z,68.18
2023-05-02T03:56:20.468Z,75.25
2023-05-02T03:57:04.332Z,59.25
2023-05-02T03:57:38.452Z,80.63
2023-05-02T03:58:11.933Z,24.48
2023-05-02T03:58:46.769Z,34.92
2023-05-02T03:59:19.429Z,18.77
2023-05-02T03:59:52.009Z,46.45
2023-05-02T04:00:35.323Z,55.35
2023-05-02T04:01:15.410Z,62.83
2023-05-02T04:01:50.584Z,55.50
2023-05-02T04:02:30.255Z,48.53
2023-05-02T04:03:03.444Z,40.38
2023-05-02T04:03:37.189Z,39.88
2023-05-02T04:04:12.135Z,52.63
2023-05-02T04:04:51.410Z,37.30
2023-05-02T04:05:26.218Z,62.60
2023-05-02T04:06:01.416Z,28.55
2023-05-02T04:06:33.775Z,26.83
2023-05-02T04:07:15.797Z,47.70
2023-05-02T04:07:51.232Z,61.05
2023-05-02T04:08:24.055Z,38.28
2023-05-02T04:08:58.056Z,26.25
2023-05-02T04:09:33.160Z,49.78
2023-05-02T04:10:16.618Z,49.92
2023-05-02T04:10:53.355Z,48.38
2023-05-02T04:11:29.735Z,28.83
2023-05-02T04:12:02.309Z,39.22
2023-05-02T04:12:35.903Z,67.75
2023-05-02T04:13:10.820Z,48.08
2023-05-02T04:13:45.881Z,57.45
2023-05-02T04:14:18.089Z,59.85
2023-05-02T04:14:53.746Z,31.33
2023-05-02T04:15:29.286Z,38.97
2023-05-02T04:16:04.748Z,43.42
2023-05-02T04:16:39.708Z,27.00
2023-05-02T04:17:12.292Z,76.05
2023-05-02T04:17:54.309Z,48.13
2023-05-02T04:18:27.012Z,47.47
2023-05-02T04:18:59.879Z,45.83
2023-05-02T04:19:35.234Z,40.65
2023-05-02T04:20:09.433Z,62.83
2023-05-02T04:20:44.680Z,43.83
2023-05-02T04:21:21.175Z,56.10
2023-05-02T04:21:53.599Z,43.35
2023-05-02T04:22:25.806Z,60.10
2023-05-02T04:23:05.136Z,67.13
2023-05-02T04:23:37.968Z,65.95
2023-05-02T04:24:10.596Z,75.57
2023-05-02T04:24:46.176Z,61.10
2023-05-02T04:25:19.047Z,70.20
2023-05-02T04:25:53.538Z,45.47
2023-05-02T04:26:29.855Z,59.38
2023-05-02T04:27:08.907Z,62.85
2023-05-02T04:27:41.828Z,38.58
2023-05-02T04:28:19.395Z,41.10
2023-05-02T04:28:51.597Z,40.88
2023-05-02T04:29:24.654Z,53.42
2023-05-02T04:30:00.088Z,49.58
2023-05-02T04:30:33.006Z,42.78
2023-05-02T04:31:15.738Z,77.88
2023-05-02T04:31:51.050Z,40.75
2023-05-02T04:32:23.680Z,34.28
2023-05-02T04:33:01.422Z,31.42
2023-05-02T04:33:37.778Z,69.40
2023-05-02T04:34:10.029Z,64.93
2023-05-02T04:34:50.031Z,58.40
2023-05-02T04:35:22.993Z,62.75
2023-05-02T04:35:55.586Z,52.95
2023-05-02T04:36:31.644Z,50.00
2023-05-02T04:37:03.852Z,93.65
2023-05-02T04:37:38.117Z,78.72
2023-05-02T04:38:13.530Z,44.10
2023-05-02T04:38:46.779Z,107.80
2023-05-02T04:39:20.413Z,54.78
2023-05-02T04:40:06.464Z,49.22
2023-05-02T04:40:39.005Z,87.75
2023-05-02T04:41:16.146Z,91.07
2023-05-02T04:41:53.643Z,96.00
2023-05-02T04:42:30.524Z,71.97
2023-05-02T04:43:16.541Z,92.78
2023-05-02T04:43:56.756Z,64.15
2023-05-02T04:44:28.945Z,53.22
2023-05-02T04:45:02.296Z,82.80
2023-05-02T04:45:38.063Z,37.22
2023-05-02T04:46:14.725Z,78.32
2023-05-02T04:46:47.123Z,47.25
2023-05-02T04:47:22.330Z,28.40
2023-05-02T04:47:54.806Z,78.97
2023-05-02T04:48:32.292Z,66.53
2023-05-02T04:49:04.562Z,91.80
2023-05-02T04:49:36.887Z,86.00
2023-05-02T04:50:13.127Z,113.95
2023-05-02T04:50:45.967Z,47.05
2023-05-02T04:51:18.244Z,51.72
2023-05-02T04:51:56.022Z,64.95
2023-05-02T04:52:30.678Z,58.05
2023-05-02T04:53:05.625Z,70.80
2023-05-02T04:53:39.215Z,46.70
2023-05-02T04:54:11.679Z,58.40
2023-05-02T04:54:46.681Z,58.58
2023-05-02T04:55:19.168Z,52.95
2023-05-02T04:55:51.513Z,49.50
2023-05-02T04:56:27.181Z,57.35
2023-05-02T04:56:59.868Z,48.65
2023-05-02T04:57:32.114Z,23.13
2023-05-02T04:58:08.520Z,22.17
2023-05-02T04:58:41.284Z,8.73
2023-05-02T04:59:17.865Z,9.23
2023-05-02T04:59:50.183Z,18.52
2023-05-02T05:00:22.582Z,70.05
2023-05-02T05:00:57.712Z,18.52
2023-05-02T05:01:30.307Z,16.67
2023-05-02T05:02:03.222Z,8.57
2023-05-02T05:02:39.261Z,15.98
2023-05-02T05:03:11.709Z,8.10
2023-05-02T05:03:46.699Z,19.33
2023-05-02T05:04:23.747Z,11.38
2023-05-02T05:04:56.087Z,9.50
2023-05-02T05:05:28.430Z,9.95
2023-05-02T05:06:03.688Z,8.50
2023-05-02T05:06:36.666Z,6.75
2023-05-02T05:07:12.212Z,32.67
2023-05-02T05:07:45.608Z,64.72
2023-05-02T05:08:18.702Z,63.92
2023-05-02T05:08:53.890Z,36.08
2023-05-02T05:09:26.260Z,53.13
2023-05-02T05:09:59.755Z,69.60
2023-05-02T05:10:38.563Z,130.73
2023-05-02T05:11:10.820Z,53.13
2023-05-02T05:11:43.836Z,84.88
2023-05-02T05:12:18.971Z,69.97
2023-05-02T05:12:51.495Z,58.00
2023-05-02T05:13:23.690Z,82.53
2023-05-02T05:13:59.738Z,82.35
2023-05-02T05:14:33.414Z,55.63
2023-05-02T05:15:10.310Z,87.47
2023-05-02T05:15:42.692Z,98.22
2023-05-02T05:16:15.576Z,76.78
2023-05-02T05:16:51.725Z,74.53
2023-05-02T05:17:23.993Z,44.30
2023-05-02T05:17:59.023Z,57.60
2023-05-02T05:18:57.319Z,50.03
2023-05-02T05:19:29.566Z,68.65
2023-05-02T05:20:03.511Z,30.67
2023-05-02T05:20:38.955Z,47.97
2023-05-02T05:21:11.442Z,35.67
2023-05-02T05:21:44.461Z,42.17
2023-05-02T05:22:21.057Z,84.35
2023-05-02T05:22:53.234Z,99.97
2023-05-02T05:23:27.247Z,64.85
2023-05-02T05:24:02.592Z,89.60
2023-05-02T05:24:35.148Z,77.90
2023-05-02T05:25:08.682Z,73.40
2023-05-02T05:25:45.593Z,124.30
2023-05-02T05:26:21.161Z,83.50
2023-05-02T05:26:56.949Z,45.05
2023-05-02T05:27:29.426Z,69.47
2023-05-02T05:28:01.838Z,77.00
2023-05-02T05:28:37.514Z,64.90
2023-05-02T05:29:09.840Z,62.67
2023-05-02T05:29:48.661Z,79.65
2023-05-02T05:30:21.800Z,80.82
2023-05-02T05:30:54.218Z,90.63
2023-05-02T05:31:30.560Z,66.03
2023-05-02T05:32:06.529Z,119.18
2023-05-02T05:32:42.428Z,80.70
2023-05-02T05:33:15.401Z,61.65
2023-05-02T05:33:48.321Z,57.30
2023-05-02T05:34:26.968Z,55.25
2023-05-02T05:35:02.574Z,46.03
2023-05-02T05:35:37.381Z,69.38
2023-05-02T05:36:11.243Z,46.83
2023-05-02T05:36:43.715Z,63.17
2023-05-02T05:37:19.034Z,95.35
2023-05-02T05:37:51.400Z,116.70
2023-05-02T05:38:24.021Z,93.65
2023-05-02T05:38:58.916Z,84.88
2023-05-02T05:39:31.324Z,67.60
2023-05-02T05:40:06.262Z,92.82
2023-05-02T05:40:41.074Z,78.95
2023-05-02T05:41:14.349Z,79.30
2023-05-02T05:41:51.865Z,97.13
2023-05-02T05:42:27.332Z,101.72
2023-05-02T05:43:03.688Z,94.05
2023-05-02T05:43:42.476Z,110.75
2023-05-02T05:44:14.860Z,130.65
2023-05-02T05:44:47.094Z,70.85
2023-05-02T05:45:23.096Z,96.75
2023-05-02T05:45:56.061Z,74.80
2023-05-02T05:46:31.126Z,117.60
2023-05-02T05:47:04.136Z,57.20
2023-05-02T05:47:39.165Z,85.70
2023-05-02T05:48:11.459Z,82.07
2023-05-02T05:48:50.201Z,53.28
2023-05-02T05:49:25.168Z,73.10
2023-05-02T05:49:58.276Z,55.78
2023-05-02T05:50:37.091Z,74.30
2023-05-02T05:51:09.434Z,73.95
2023-05-02T05:51:44.269Z,117.43
2023-05-02T05:52:16.567Z,69.15
2023-05-02T05:52:48.855Z,118.95
2023-05-02T05:53:24.229Z,93.45
2023-05-02T05:53:56.467Z,86.93
2023-05-02T05:54:31.459Z,94.10
2023-05-02T05:55:07.038Z,72.25
2023-05-02T05:55:41.562Z,88.25
2023-05-02T05:56:18.343Z,36.63
2023-05-02T05:56:58.042Z,91.32
2023-05-02T05:57:30.567Z,39.15
2023-05-02T05:58:05.468Z,74.75
2023-05-02T05:58:38.425Z,97.18
2023-05-02T05:59:13.782Z,78.43
2023-05-02T05:59:46.014Z,48.25
2023-05-02T06:00:20.753Z,103.72
2023-05-02T06:00:58.885Z,70.93
2023-05-02T06:01:32.389Z,57.38
2023-05-02T06:02:05.702Z,56.17
2023-05-02T06:02:41.047Z,58.50
2023-05-02T06:03:13.992Z,77.90
2023-05-02T06:03:46.566Z,58.25
2023-05-02T06:04:22.412Z,74.15
2023-05-02T06:04:59.383Z,83.47
2023-05-02T06:05:34.594Z,67.88
2023-05-02T06:06:06.954Z,83.03
2023-05-02T06:06:41.921Z,77.53
2023-05-02T06:07:14.118Z,65.07
2023-05-02T06:07:49.210Z,98.20
2023-05-02T06:08:21.813Z,104.13
2023-05-02T06:08:56.973Z,107.72
2023-05-02T06:09:29.349Z,69.13
2023-05-02T06:10:04.173Z,83.07
2023-05-02T06:10:38.703Z,90.57
2023-05-02T06:11:11.223Z,81.07
2023-05-02T06:11:46.282Z,87.22
2023-05-02T06:12:18.754Z,93.03
2023-05-02T06:12:51.847Z,129.77
2023-05-02T06:13:30.844Z,98.43
2023-05-02T06:14:03.461Z,74.75
2023-05-02T06:14:38.397Z,70.25
2023-05-02T06:15:11.075Z,121.90
2023-05-02T06:15:43.738Z,88.97
2023-05-02T06:16:18.641Z,120.78
2023-05-02T06:16:51.422Z,117.22
2023-05-02T06:17:26.708Z,87.72
2023-05-02T06:17:59.037Z,119.82
2023-05-02T06:18:31.353Z,85.20
2023-05-02T06:19:06.229Z,65.80
2023-05-02T06:19:38.479Z,26.10
2023-05-02T06:20:16.557Z,82.78
2023-05-02T06:20:51.554Z,79.18
2023-05-02T06:21:23.872Z,78.63
2023-05-02T06:21:56.150Z,75.63
2023-05-02T06:22:30.955Z,84.70
2023-05-02T06:23:03.192Z,76.07
2023-05-02T06:23:38.377Z,62.75
2023-05-02T06:24:11.984Z,67.78
2023-05-02T06:24:44.286Z,51.92
2023-05-02T06:25:19.344Z,34.67
2023-05-02T06:25:51.581Z,81.82
2023-05-02T06:26:26.421Z,98.00
2023-05-02T06:26:59.334Z,94.13
2023-05-02T06:27:33.677Z,94.38
2023-05-02T06:28:09.724Z,28.90
2023-05-02T06:28:42.077Z,62.97
2023-05-02T06:29:16.997Z,83.28
2023-05-02T06:29:51.594Z,100.25
2023-05-02T06:30:27.279Z,52.83
2023-05-02T06:31:01.366Z,99.22
2023-05-02T06:31:33.749Z,70.68
2023-05-02T06:32:09.027Z,95.32
2023-05-02T06:32:42.595Z,69.70
2023-05-02T06:33:15.038Z,103.85
2023-05-02T06:33:50.041Z,84.10
2023-05-02T06:34:22.626Z,112.88
2023-05-02T06:34:55.079Z,98.72
2023-05-02T06:35:32.692Z,83.28
2023-05-02T06:36:05.233Z,82.57
2023-05-02T06:36:40.004Z,66.15
2023-05-02T06:37:12.441Z,122.90
2023-05-02T06:37:47.299Z,72.20
2023-05-02T06:38:19.661Z,73.25
2023-05-02T06:38:54.559Z,64.88
2023-05-02T06:39:26.813Z,65.05
2023-05-02T06:39:59.195Z,89.65
2023-05-02T06:40:34.119Z,39.50
2023-05-02T06:41:06.362Z,71.13
2023-05-02T06:41:41.961Z,42.05
2023-05-02T06:42:19.376Z,70.38
2023-05-02T06:42:51.610Z,83.43
2023-05-02T06:43:26.726Z,65.88
2023-05-02T06:43:59.028Z,112.22
2023-05-02T06:44:31.270Z,62.67
2023-05-02T06:45:07.225Z,48.47
2023-05-02T06:45:39.698Z,78.90
2023-05-02T06:46:12.036Z,125.05
2023-05-02T06:46:46.828Z,97.00
2023-05-02T06:47:19.127Z,62.85
2023-05-02T06:47:51.441Z,91.05
2023-05-02T06:48:26.226Z,68.30
2023-05-02T06:48:58.455Z,43.25
2023-05-02T06:49:30.714Z,119.60
2023-05-02T06:50:05.687Z,88.97
2023-05-02T06:50:40.736Z,69.72
2023-05-02T06:51:15.083Z,55.70
2023-05-02T06:51:50.013Z,79.03
2023-05-02T06:52:22.174Z,39.53
2023-05-02T06:52:56.964Z,81.13
2023-05-02T06:53:30.604Z,52.03
2023-05-02T06:54:04.581Z,100.28
2023-05-02T06:54:39.764Z,90.03
2023-05-02T06:55:12.000Z,70.07
2023-05-02T06:55:49.020Z,112.28
2023-05-02T06:56:21.961Z,59.08
2023-05-02T06:56:54.721Z,98.78
2023-05-02T06:57:29.696Z,60.35
2023-05-02T06:58:01.991Z,64.65
2023-05-02T06:58:36.802Z,95.57
2023-05-02T06:59:09.133Z,75.20
2023-05-02T06:59:41.543Z,102.32
2023-05-02T07:00:19.020Z,111.50
2023-05-02T07:00:51.506Z,82.53
2023-05-02T07:01:26.469Z,75.18
2023-05-02T07:01:58.719Z,72.50
2023-05-02T07:02:30.918Z,91.00
2023-05-02T07:03:05.809Z,86.45
2023-05-02T07:03:38.051Z,34.30
2023-05-02T07:04:10.338Z,73.03
2023-05-02T07:04:45.519Z,75.57
2023-05-02T07:05:18.191Z,94.00
2023-05-02T07:05:53.221Z,98.55
2023-05-02T07:06:28.147Z,90.22
2023-05-02T07:07:00.487Z,69.10
2023-05-02T07:07:32.731Z,89.05
2023-05-02T07:08:07.936Z,98.40
2023-05-02T07:08:40.238Z,64.50
2023-05-02T07:09:15.026Z,50.38
2023-05-02T07:09:47.217Z,85.85
2023-05-02T07:10:22.070Z,61.25
2023-05-02T07:10:54.253Z,90.18
2023-05-02T07:11:28.189Z,68.82
2023-05-02T07:12:05.234Z,111.60
2023-05-02T07:12:39.680Z,57.83
2023-05-02T07:13:14.863Z,56.45
2023-05-02T07:13:47.214Z,40.22
2023-05-02T07:14:22.146Z,53.70
2023-05-02T07:14:54.490Z,51.70
2023-05-02T07:15:29.313Z,42.95
2023-05-02T07:16:01.800Z,61.05
2023-05-02T07:16:34.098Z,72.88
2023-05-02T07:17:09.187Z,91.78
2023-05-02T07:17:42.032Z,94.20
2023-05-02T07:18:14.619Z,76.38
2023-05-02T07:18:49.643Z,86.95
2023-05-02T07:19:21.916Z,86.38
2023-05-02T07:19:57.239Z,67.38
2023-05-02T07:20:29.495Z,47.90
2023-05-02T07:21:07.150Z,74.00
2023-05-02T07:21:39.317Z,54.63
2023-05-02T07:22:11.522Z,101.68
2023-05-02T07:22:46.395Z,80.47
2023-05-02T07:23:18.709Z,121.25
2023-05-02T07:23:50.988Z,89.63
2023-05-02T07:24:26.574Z,76.47
2023-05-02T07:24:59.793Z,61.22
2023-05-02T07:25:34.689Z,37.38
2023-05-02T07:26:08.104Z,76.38
2023-05-02T07:26:40.368Z,80.55
2023-05-02T07:27:16.204Z,59.38
2023-05-02T07:27:48.437Z,96.13
2023-05-02T07:28:20.898Z,75.20
2023-05-02T07:28:55.892Z,52.15
2023-05-02T07:29:28.094Z,58.58
2023-05-02T07:30:03.180Z,64.00
2023-05-02T07:30:35.764Z,65.88
2023-05-02T07:31:10.717Z,69.82
2023-05-02T07:31:42.958Z,69.03
2023-05-02T07:32:15.229Z,45.28
2023-05-02T07:32:50.026Z,88.18
2023-05-02T07:33:22.566Z,41.25
2023-05-02T07:33:54.974Z,74.38
2023-05-02T07:34:30.348Z,64.63
2023-05-02T07:35:02.635Z,107.07